createdAt,value
2023-12-07T00:02:13.745Z,53.70
2023-12-07T00:04:43.924Z,53.63
2023-12-07T00:07:14.069Z,53.66
2023-12-07T00:09:44.203Z,53.58
2023-12-07T00:12:14.337Z,53.51
2023-12-07T00:14:44.464Z,53.48
2023-12-07T00:17:15.710Z,53.49
2023-12-07T00:19:45.781Z,53.44
2023-12-07T00:22:15.861Z,53.47
2023-12-07T00:24:46.030Z,53.43
2023-12-07T00:27:16.095Z,53.39
2023-12-07T00:29:46.314Z,53.41
2023-12-07T00:32:16.428Z,53.38
2023-12-07T00:34:47.334Z,53.40
2023-12-07T00:37:17.840Z,53.38
2023-12-07T00:39:47.930Z,53.37
2023-12-07T00:42:17.981Z,53.36
2023-12-07T00:44:48.024Z,53.36
2023-12-07T00:47:18.104Z,53.37
2023-12-07T00:49:48.220Z,53.28
2023-12-07T00:52:19.367Z,53.35
2023-12-07T00:54:49.581Z,53.43
2023-12-07T00:57:19.803Z,53.43
2023-12-07T00:59:49.874Z,53.57
2023-12-07T01:02:20.265Z,53.62
2023-12-07T01:04:50.361Z,53.67
2023-12-07T01:07:21.535Z,53.75
2023-12-07T01:09:51.617Z,53.76
2023-12-07T01:12:21.998Z,53.79
2023-12-07T01:14:52.262Z,53.85
2023-12-07T01:17:22.362Z,53.89
2023-12-07T01:19:52.585Z,53.92
2023-12-07T01:22:22.942Z,53.95
2023-12-07T01:24:53.637Z,53.96
2023-12-07T01:27:26.458Z,54.03
2023-12-07T01:29:56.802Z,54.02
2023-12-07T01:32:27.320Z,54.07
2023-12-07T01:34:58.929Z,54.13
2023-12-07T01:37:30.821Z,54.10
2023-12-07T01:40:00.959Z,54.15
2023-12-07T01:42:31.329Z,54.17
2023-12-07T01:45:01.419Z,54.11
2023-12-07T01:47:31.870Z,54.10
2023-12-07T01:50:06.104Z,54.11
2023-12-07T01:52:42.856Z,54.02
2023-12-07T01:55:14.566Z,53.94
2023-12-07T01:57:47.381Z,53.89
2023-12-07T02:00:18.442Z,53.84
2023-12-07T02:02:50.062Z,53.85
2023-12-07T02:05:20.714Z,53.77
2023-12-07T02:07:51.131Z,53.75
2023-12-07T02:10:21.760Z,53.72
2023-12-07T02:12:52.085Z,53.64
2023-12-07T02:15:22.350Z,53.60
2023-12-07T02:18:00.209Z,53.62
2023-12-07T02:20:50.015Z,53.48
2023-12-07T02:23:31.961Z,53.21
2023-12-07T02:26:10.972Z,53.06
2023-12-07T02:28:41.102Z,53.06
2023-12-07T02:31:11.220Z,53.09
2023-12-07T02:33:41.475Z,53.11
2023-12-07T02:36:11.889Z,53.08
2023-12-07T02:38:43.900Z,53.08
2023-12-07T02:41:14.450Z,53.03
2023-12-07T02:43:44.879Z,52.97
2023-12-07T02:46:15.287Z,53.08
2023-12-07T02:48:45.399Z,53.16
2023-12-07T02:51:15.541Z,53.21
2023-12-07T02:53:45.636Z,53.29
2023-12-07T02:56:15.824Z,53.36
2023-12-07T02:58:45.893Z,53.51
2023-12-07T03:01:16.028Z,53.57
2023-12-07T03:03:46.246Z,53.60
2023-12-07T03:06:17.564Z,53.60
2023-12-07T03:08:47.630Z,53.66
2023-12-07T03:11:17.712Z,53.73
2023-12-07T03:13:47.835Z,53.79
2023-12-07T03:16:17.956Z,53.83
2023-12-07T03:18:48.117Z,53.89
2023-12-07T03:21:18.183Z,53.93
2023-12-07T03:23:48.765Z,53.90
2023-12-07T03:26:19.021Z,53.90
2023-12-07T03:28:49.072Z,53.86
2023-12-07T03:31:19.364Z,53.89
2023-12-07T03:33:49.555Z,53.83
2023-12-07T03:36:19.917Z,53.80
2023-12-07T03:38:52.894Z,53.78
2023-12-07T03:41:23.038Z,53.70
2023-12-07T03:43:53.205Z,53.65
2023-12-07T03:46:23.328Z,53.61
2023-12-07T03:48:53.616Z,53.54
2023-12-07T03:51:23.730Z,53.54
2023-12-07T03:53:54.821Z,53.57
2023-12-07T03:56:28.519Z,53.58
2023-12-07T03:58:59.150Z,53.63
2023-12-07T04:01:31.063Z,53.65
2023-12-07T04:04:02.093Z,53.79
2023-12-07T04:06:32.233Z,53.88
2023-12-07T04:09:02.362Z,53.99
2023-12-07T04:11:32.495Z,53.99
2023-12-07T04:14:02.715Z,54.03
2023-12-07T04:16:32.904Z,54.07
2023-12-07T04:19:03.779Z,54.12
2023-12-07T04:21:39.937Z,54.04
2023-12-07T04:24:10.116Z,53.96
2023-12-07T04:26:40.196Z,53.97
2023-12-07T04:29:10.292Z,53.95
2023-12-07T04:31:42.950Z,53.92
2023-12-07T04:34:13.174Z,53.79
2023-12-07T04:36:43.333Z,53.68
2023-12-07T04:39:13.566Z,53.63
2023-12-07T04:41:43.632Z,53.66
2023-12-07T04:44:13.686Z,53.62
2023-12-07T04:46:45.517Z,53.57
2023-12-07T04:49:15.798Z,53.44
2023-12-07T04:51:48.019Z,53.46
2023-12-07T04:54:20.067Z,53.29
2023-12-07T04:56:50.507Z,53.26
2023-12-07T04:59:20.598Z,53.25
2023-12-07T05:01:50.792Z,53.24
2023-12-07T05:04:20.954Z,53.21
2023-12-07T05:06:51.088Z,53.15
2023-12-07T05:09:22.949Z,53.12
2023-12-07T05:11:53.078Z,53.09
2023-12-07T05:14:23.269Z,53.08
2023-12-07T05:16:57.277Z,53.09
2023-12-07T05:19:29.653Z,52.99
2023-12-07T05:21:59.859Z,52.93
2023-12-07T05:24:33.693Z,52.96
2023-12-07T05:27:09.639Z,52.89
2023-12-07T05:29:40.071Z,52.81
2023-12-07T05:32:10.239Z,52.86
2023-12-07T05:34:40.442Z,52.87
2023-12-07T05:37:10.576Z,52.92
2023-12-07T05:39:40.781Z,52.96
2023-12-07T05:42:10.840Z,52.91
2023-12-07T05:44:40.973Z,52.94
2023-12-07T05:47:11.070Z,52.96
2023-12-07T05:49:41.172Z,53.02
2023-12-07T05:52:11.372Z,53.03
2023-12-07T05:54:47.961Z,53.05
2023-12-07T05:57:18.040Z,52.92
2023-12-07T05:59:48.575Z,52.97
2023-12-07T06:02:18.636Z,53.00
2023-12-07T06:04:48.778Z,53.01
2023-12-07T06:07:18.968Z,53.00
2023-12-07T06:09:49.107Z,53.00
2023-12-07T06:12:19.282Z,53.00
2023-12-07T06:14:49.331Z,52.91
2023-12-07T06:17:19.459Z,52.89
2023-12-07T06:19:49.635Z,52.99
2023-12-07T06:22:19.855Z,53.02
2023-12-07T06:24:49.897Z,53.13
2023-12-07T06:27:19.991Z,53.22
2023-12-07T06:29:50.062Z,53.34
2023-12-07T06:32:20.454Z,53.43
2023-12-07T06:34:50.764Z,53.56
2023-12-07T06:37:21.479Z,53.72
2023-12-07T06:39:54.559Z,54.61
2023-12-07T06:42:24.878Z,54.13
2023-12-07T06:44:55.076Z,54.11
2023-12-07T06:47:25.349Z,54.16
2023-12-07T06:49:55.658Z,54.12
2023-12-07T06:52:25.894Z,54.12
2023-12-07T06:54:56.009Z,54.05
2023-12-07T06:57:26.285Z,54.03
2023-12-07T06:59:56.641Z,53.98
2023-12-07T07:02:27.087Z,53.97
2023-12-07T07:04:57.257Z,54.00
2023-12-07T07:07:28.198Z,53.94
2023-12-07T07:09:58.809Z,53.87
2023-12-07T07:12:30.763Z,53.77
2023-12-07T07:15:00.913Z,53.68
2023-12-07T07:17:31.057Z,53.58
2023-12-07T07:20:01.247Z,53.55
2023-12-07T07:22:31.373Z,53.52
2023-12-07T07:25:01.588Z,53.45
2023-12-07T07:27:31.710Z,53.38
2023-12-07T07:30:01.818Z,53.41
2023-12-07T07:32:32.325Z,53.36
2023-12-07T07:35:02.543Z,53.36
2023-12-07T07:37:32.710Z,53.30
2023-12-07T07:40:08.079Z,53.27
2023-12-07T07:42:39.672Z,53.12
2023-12-07T07:45:10.793Z,53.93
2023-12-07T07:47:41.205Z,54.59
2023-12-07T07:50:11.929Z,55.06
2023-12-07T07:52:42.223Z,54.99
2023-12-07T07:55:13.815Z,55.43
2023-12-07T07:57:44.199Z,56.04
2023-12-07T08:00:15.085Z,55.81
2023-12-07T08:02:45.211Z,55.60
2023-12-07T08:05:16.155Z,55.13
2023-12-07T08:07:46.362Z,54.86
2023-12-07T08:10:16.538Z,54.51
2023-12-07T08:12:46.695Z,53.97
2023-12-07T08:15:16.999Z,53.44
2023-12-07T08:17:47.109Z,52.79
2023-12-07T08:20:17.582Z,52.20
2023-12-07T08:22:48.240Z,51.64
2023-12-07T08:25:18.639Z,51.14
2023-12-07T08:27:48.844Z,50.83
2023-12-07T08:30:20.064Z,50.57
2023-12-07T08:32:50.203Z,50.37
2023-12-07T08:35:20.307Z,50.24
2023-12-07T08:37:50.413Z,50.09
2023-12-07T08:40:20.921Z,49.82
2023-12-07T08:42:52.789Z,49.73
2023-12-07T08:45:23.417Z,49.53
2023-12-07T08:47:53.714Z,49.42
2023-12-07T08:50:25.561Z,49.26
2023-12-07T08:52:59.952Z,49.30
2023-12-07T08:55:34.862Z,49.08
2023-12-07T08:58:07.812Z,49.23
2023-12-07T09:00:37.907Z,49.25
2023-12-07T09:03:08.070Z,49.13
2023-12-07T09:05:38.323Z,48.83
2023-12-07T09:08:08.501Z,48.90
2023-12-07T09:10:38.642Z,49.12
2023-12-07T09:13:08.932Z,48.67
2023-12-07T09:15:39.096Z,48.74
2023-12-07T09:18:09.263Z,48.73
2023-12-07T09:20:47.302Z,48.90
2023-12-07T09:23:18.171Z,48.57
2023-12-07T09:25:48.805Z,48.59
2023-12-07T09:28:19.055Z,48.44
2023-12-07T09:30:49.268Z,48.46
2023-12-07T09:33:21.370Z,48.43
2023-12-07T09:35:52.763Z,48.34
2023-12-07T09:38:22.923Z,48.18
2023-12-07T09:40:56.595Z,48.08
2023-12-07T09:43:26.709Z,47.76
2023-12-07T09:45:57.273Z,47.49
2023-12-07T09:48:27.840Z,47.10
2023-12-07T09:50:58.994Z,47.02
2023-12-07T09:53:35.268Z,47.22
2023-12-07T09:56:05.965Z,47.20
2023-12-07T09:58:41.188Z,47.12
2023-12-07T10:01:15.323Z,47.09
2023-12-07T10:03:48.883Z,46.87
2023-12-07T10:06:19.405Z,46.87
2023-12-07T10:08:49.535Z,46.68
2023-12-07T10:11:19.751Z,46.66
2023-12-07T10:13:50.073Z,46.93
2023-12-07T10:16:20.951Z,47.26
2023-12-07T10:18:51.466Z,47.58
2023-12-07T10:21:34.823Z,47.69
2023-12-07T10:24:05.919Z,47.60
2023-12-07T10:26:38.493Z,47.65
2023-12-07T10:29:12.593Z,47.65
2023-12-07T10:31:48.464Z,47.52
2023-12-07T10:34:21.664Z,47.46
2023-12-07T10:36:54.372Z,47.35
2023-12-07T10:39:32.874Z,47.24
2023-12-07T10:42:13.346Z,46.80
2023-12-07T10:44:46.947Z,46.20
2023-12-07T10:47:17.510Z,46.20
2023-12-07T10:49:59.063Z,46.08
2023-12-07T10:52:35.168Z,45.67
2023-12-07T10:55:08.187Z,45.67
2023-12-07T10:57:41.234Z,45.36
2023-12-07T11:00:11.987Z,45.68
2023-12-07T11:02:43.850Z,45.81
2023-12-07T11:05:14.426Z,46.28
2023-12-07T11:08:10.900Z,46.44
2023-12-07T11:10:47.142Z,46.16
2023-12-07T11:13:22.659Z,45.93
2023-12-07T11:15:53.100Z,45.87
2023-12-07T11:18:23.278Z,45.88
2023-12-07T11:20:54.771Z,45.72
2023-12-07T11:23:25.182Z,45.47
2023-12-07T11:25:58.755Z,45.43
2023-12-07T11:28:41.372Z,45.40
2023-12-07T11:31:12.097Z,45.17
2023-12-07T11:33:43.488Z,45.43
2023-12-07T11:36:14.496Z,45.39
2023-12-07T11:39:15.362Z,45.42
2023-12-07T11:41:56.669Z,44.24
2023-12-07T11:44:43.966Z,44.52
2023-12-07T11:47:19.712Z,44.67
2023-12-07T11:49:50.403Z,45.01
2023-12-07T11:52:23.842Z,45.54
2023-12-07T11:54:53.962Z,45.66
2023-12-07T11:57:24.360Z,45.73
2023-12-07T11:59:54.506Z,45.85
2023-12-07T12:02:24.582Z,46.17
2023-12-07T12:04:57.777Z,46.66
2023-12-07T12:07:28.439Z,47.13
2023-12-07T12:10:00.635Z,47.15
2023-12-07T12:12:34.956Z,47.74
2023-12-07T12:15:05.234Z,48.18
2023-12-07T12:17:37.399Z,48.44
2023-12-07T12:20:08.878Z,48.38
2023-12-07T12:22:42.021Z,48.39
2023-12-07T12:25:13.705Z,48.05
2023-12-07T12:27:45.624Z,48.17
2023-12-07T12:30:16.215Z,48.20
2023-12-07T12:32:47.308Z,48.23
2023-12-07T12:35:17.832Z,48.34
2023-12-07T12:37:49.782Z,48.46
2023-12-07T12:40:22.070Z,48.65
2023-12-07T12:42:56.474Z,48.67
2023-12-07T12:45:27.469Z,48.73
2023-12-07T12:48:00.362Z,48.89
2023-12-07T12:50:40.905Z,49.03
2023-12-07T12:53:14.532Z,49.00
2023-12-07T12:55:45.014Z,49.13
2023-12-07T12:58:15.224Z,49.38
2023-12-07T13:00:46.156Z,49.35
2023-12-07T13:03:16.335Z,49.54
2023-12-07T13:05:46.543Z,49.61
2023-12-07T13:08:16.910Z,49.74
2023-12-07T13:10:47.100Z,49.77
2023-12-07T13:13:17.355Z,49.89
2023-12-07T13:15:47.482Z,50.02
2023-12-07T13:18:20.263Z,49.98
2023-12-07T13:20:55.856Z,50.13
2023-12-07T13:23:26.866Z,50.11
2023-12-07T13:25:57.047Z,50.17
2023-12-07T13:28:27.211Z,50.18
2023-12-07T13:30:57.443Z,50.23
2023-12-07T13:33:30.559Z,50.34
2023-12-07T13:36:06.247Z,50.32
2023-12-07T13:38:37.526Z,50.29
2023-12-07T13:41:08.300Z,50.32
2023-12-07T13:43:38.430Z,50.33
2023-12-07T13:46:08.841Z,50.43
2023-12-07T13:48:41.798Z,50.44
2023-12-07T13:51:11.896Z,50.40
2023-12-07T13:53:42.304Z,50.47
2023-12-07T13:56:12.378Z,50.43
2023-12-07T13:58:42.626Z,50.50
2023-12-07T14:01:12.882Z,50.55
2023-12-07T14:03:43.032Z,50.71
2023-12-07T14:06:21.888Z,50.62
2023-12-07T14:08:57.898Z,50.48
2023-12-07T14:11:28.086Z,50.54
2023-12-07T14:13:58.814Z,50.58
2023-12-07T14:16:42.159Z,50.59
2023-12-07T14:21:55.106Z,50.41
2023-12-07T14:24:27.432Z,50.36
2023-12-07T14:26:57.765Z,50.42
2023-12-07T14:29:28.292Z,50.56
2023-12-07T14:31:59.043Z,50.74
2023-12-07T14:34:34.974Z,50.77
2023-12-07T14:37:07.981Z,50.79
2023-12-07T14:39:39.872Z,51.23
2023-12-07T14:42:10.300Z,51.22
2023-12-07T14:44:40.414Z,51.41
2023-12-07T14:47:10.746Z,51.62
2023-12-07T14:49:41.815Z,52.03
2023-12-07T14:52:11.921Z,52.13
2023-12-07T14:54:42.513Z,52.13
2023-12-07T14:57:12.827Z,52.17
2023-12-07T14:59:42.996Z,52.07
2023-12-07T15:02:13.681Z,52.00
2023-12-07T15:04:43.837Z,51.91
2023-12-07T15:07:14.661Z,51.91
2023-12-07T15:09:48.194Z,51.97
2023-12-07T15:12:20.160Z,51.83
2023-12-07T15:14:50.347Z,51.69
2023-12-07T15:17:20.824Z,51.69
2023-12-07T15:19:51.131Z,51.59
2023-12-07T15:22:21.345Z,51.63
2023-12-07T15:24:51.399Z,51.54
2023-12-07T15:27:21.559Z,51.57
2023-12-07T15:29:51.654Z,51.54
2023-12-07T15:32:22.714Z,51.41
2023-12-07T15:34:53.739Z,51.55
2023-12-07T15:37:25.601Z,51.36
2023-12-07T15:39:55.694Z,51.27
2023-12-07T15:42:25.959Z,51.42
2023-12-07T15:44:56.185Z,51.45
2023-12-07T15:47:26.549Z,51.37
2023-12-07T15:49:57.272Z,51.52
2023-12-07T15:52:27.675Z,51.10
2023-12-07T15:54:57.738Z,50.95
2023-12-07T15:57:28.127Z,50.86
2023-12-07T15:59:58.393Z,51.16
2023-12-07T16:02:28.512Z,51.21
2023-12-07T16:04:58.606Z,51.31
2023-12-07T16:07:29.140Z,50.87
2023-12-07T16:09:59.699Z,50.82
2023-12-07T16:12:29.818Z,51.14
2023-12-07T16:15:00.372Z,51.14
2023-12-07T16:17:30.728Z,51.05
2023-12-07T16:20:01.310Z,50.98
2023-12-07T16:22:31.529Z,50.98
2023-12-07T16:25:03.658Z,51.18
2023-12-07T16:27:33.808Z,51.08
2023-12-07T16:30:04.118Z,50.95
2023-12-07T16:32:34.424Z,50.98
2023-12-07T16:35:05.198Z,51.06
2023-12-07T16:37:35.813Z,51.22
2023-12-07T16:40:06.276Z,51.12
2023-12-07T16:42:38.413Z,51.10
2023-12-07T16:45:09.406Z,51.12
2023-12-07T16:47:39.631Z,51.00
2023-12-07T16:50:10.211Z,51.01
2023-12-07T16:52:51.886Z,50.92
2023-12-07T16:55:26.571Z,50.67
2023-12-07T16:57:58.133Z,50.84
2023-12-07T17:00:29.124Z,50.83
2023-12-07T17:02:59.481Z,51.09
2023-12-07T17:05:29.627Z,50.95
2023-12-07T17:07:59.782Z,50.80
2023-12-07T17:10:30.691Z,50.89
2023-12-07T17:13:02.485Z,50.79
2023-12-07T17:15:32.544Z,51.14
2023-12-07T17:18:02.716Z,50.47
2023-12-07T17:20:32.877Z,50.73
2023-12-07T17:23:03.109Z,50.53
2023-12-07T17:25:33.291Z,50.36
2023-12-07T17:28:03.429Z,50.23
2023-12-07T17:30:33.523Z,50.18
2023-12-07T17:33:03.722Z,50.13
2023-12-07T17:35:33.953Z,50.15
2023-12-07T17:38:04.127Z,50.19
2023-12-07T17:40:34.254Z,50.26
2023-12-07T17:43:05.175Z,50.24
2023-12-07T17:45:35.740Z,50.27
2023-12-07T17:48:07.440Z,50.29
2023-12-07T17:50:37.519Z,50.31
2023-12-07T17:53:07.850Z,50.32
2023-12-07T17:55:38.063Z,50.33
2023-12-07T17:58:08.149Z,50.35
2023-12-07T18:00:38.295Z,50.34
2023-12-07T18:03:08.449Z,50.40
2023-12-07T18:05:38.605Z,50.34
2023-12-07T18:08:09.068Z,50.34
2023-12-07T18:10:39.203Z,50.40
2023-12-07T18:13:10.517Z,50.36
2023-12-07T18:15:40.629Z,50.31
2023-12-07T18:18:10.790Z,50.36
2023-12-07T18:20:40.933Z,50.40
2023-12-07T18:23:11.296Z,50.35
2023-12-07T18:25:41.557Z,50.36
2023-12-07T18:28:11.698Z,50.41
2023-12-07T18:30:44.900Z,50.41
2023-12-07T18:33:15.294Z,50.35
2023-12-07T18:35:45.404Z,50.38
2023-12-07T18:38:15.789Z,50.40
2023-12-07T18:40:46.446Z,50.47
2023-12-07T18:43:17.396Z,50.39
2023-12-07T18:45:47.809Z,50.47
2023-12-07T18:48:17.977Z,50.47
2023-12-07T18:50:48.734Z,50.43
2023-12-07T18:53:18.945Z,50.50
2023-12-07T18:55:49.065Z,50.48
2023-12-07T18:58:19.124Z,50.48
2023-12-07T19:00:49.254Z,50.52
2023-12-07T19:03:20.100Z,50.51
2023-12-07T19:05:50.328Z,50.54
2023-12-07T19:08:20.463Z,50.62
2023-12-07T19:10:50.560Z,50.66
2023-12-07T19:13:20.843Z,50.75
2023-12-07T19:15:51.021Z,50.74
2023-12-07T19:18:27.983Z,50.83
2023-12-07T19:20:59.072Z,50.73
2023-12-07T19:23:30.011Z,50.81
2023-12-07T19:26:00.212Z,50.82
2023-12-07T19:28:30.404Z,50.88
2023-12-07T19:31:00.719Z,50.92
2023-12-07T19:33:33.544Z,50.95
2023-12-07T19:36:04.236Z,50.92
2023-12-07T19:38:35.726Z,50.94
2023-12-07T19:41:06.692Z,50.94
2023-12-07T19:43:37.012Z,51.03
2023-12-07T19:46:07.184Z,51.03
2023-12-07T19:48:38.532Z,51.05
2023-12-07T19:51:09.379Z,51.10
2023-12-07T19:53:39.456Z,51.14
2023-12-07T19:56:09.984Z,51.19
2023-12-07T19:58:40.090Z,51.22
2023-12-07T20:01:10.191Z,51.22
2023-12-07T20:03:40.330Z,51.27
2023-12-07T20:06:10.472Z,51.27
2023-12-07T20:08:40.686Z,51.31
2023-12-07T20:11:11.062Z,51.36
2023-12-07T20:13:41.143Z,51.35
2023-12-07T20:16:12.235Z,51.51
2023-12-07T20:18:42.646Z,51.48
2023-12-07T20:21:14.005Z,51.45
2023-12-07T20:23:45.040Z,51.48
2023-12-07T20:26:18.089Z,51.48
2023-12-07T20:28:49.214Z,51.49
2023-12-07T20:31:19.379Z,51.47
2023-12-07T20:33:49.765Z,51.54
2023-12-07T20:36:19.987Z,51.50
2023-12-07T20:38:50.172Z,51.54
2023-12-07T20:41:20.708Z,51.58
2023-12-07T20:43:50.785Z,51.57
2023-12-07T20:46:20.962Z,51.60
2023-12-07T20:48:51.193Z,51.64
2023-12-07T20:51:21.301Z,51.67
2023-12-07T20:53:51.385Z,51.66
2023-12-07T20:56:24.283Z,51.67
2023-12-07T20:58:57.056Z,51.63
2023-12-07T21:01:27.233Z,51.64
2023-12-07T21:03:57.371Z,51.67
2023-12-07T21:06:28.271Z,51.66
2023-12-07T21:08:58.414Z,51.69
2023-12-07T21:11:28.789Z,51.59
2023-12-07T21:13:59.215Z,51.51
2023-12-07T21:16:32.042Z,51.54
2023-12-07T21:19:02.308Z,51.76
2023-12-07T21:21:32.579Z,51.67
2023-12-07T21:24:02.980Z,51.75
2023-12-07T21:26:33.214Z,51.54
2023-12-07T21:29:03.356Z,51.37
2023-12-07T21:31:34.131Z,51.23
2023-12-07T21:34:04.482Z,51.14
2023-12-07T21:36:34.737Z,51.12
2023-12-07T21:39:05.883Z,51.08
2023-12-07T21:41:36.093Z,51.08
2023-12-07T21:44:06.789Z,51.04
2023-12-07T21:46:36.868Z,51.05
2023-12-07T21:49:07.067Z,51.03
2023-12-07T21:51:37.236Z,51.03
2023-12-07T21:54:07.363Z,51.06
2023-12-07T21:56:37.503Z,51.07
2023-12-07T21:59:07.636Z,51.17
2023-12-07T22:01:37.737Z,51.08
2023-12-07T22:04:08.028Z,51.16
2023-12-07T22:06:38.256Z,51.19
2023-12-07T22:09:08.522Z,51.16
2023-12-07T22:11:38.717Z,51.21
2023-12-07T22:14:08.804Z,51.21
2023-12-07T22:16:45.899Z,51.15
2023-12-07T22:19:18.419Z,51.13
2023-12-07T22:21:48.722Z,51.10
2023-12-07T22:24:19.222Z,51.12
2023-12-07T22:26:49.291Z,51.17
2023-12-07T22:29:19.341Z,51.25
2023-12-07T22:31:49.885Z,51.22
2023-12-07T22:34:20.170Z,51.27
2023-12-07T22:36:50.378Z,51.30
2023-12-07T22:39:20.493Z,51.32
2023-12-07T22:41:50.625Z,51.32
2023-12-07T22:44:20.749Z,51.32
2023-12-07T22:46:50.812Z,51.42
2023-12-07T22:49:21.372Z,51.40
2023-12-07T22:51:51.630Z,51.43
2023-12-07T22:54:21.723Z,51.39
2023-12-07T22:56:51.832Z,51.42
2023-12-07T22:59:22.069Z,51.45
2023-12-07T23:01:52.118Z,51.46
2023-12-07T23:04:22.520Z,51.49
2023-12-07T23:06:52.641Z,51.58
2023-12-07T23:09:22.717Z,51.67
2023-12-07T23:11:52.958Z,51.73
2023-12-07T23:14:23.092Z,51.83
2023-12-07T23:16:53.157Z,51.89
2023-12-07T23:19:23.469Z,51.94
2023-12-07T23:21:53.656Z,52.02
2023-12-07T23:24:23.734Z,52.05
2023-12-07T23:26:54.025Z,52.06
2023-12-07T23:29:24.225Z,52.08
2023-12-07T23:31:54.289Z,52.10
2023-12-07T23:34:25.017Z,52.10
2023-12-07T23:36:55.503Z,52.06
2023-12-07T23:39:25.613Z,52.05
2023-12-07T23:41:55.754Z,52.07
2023-12-07T23:44:25.904Z,52.06
2023-12-07T23:46:55.971Z,52.08
2023-12-07T23:49:26.178Z,52.08
2023-12-07T23:51:56.484Z,52.07
2023-12-07T23:54:26.586Z,52.09
2023-12-07T23:56:56.771Z,52.07
2023-12-07T23:59:26.835Z,52.05
